Terminal Aerodrome Forecast
Issued by NWS Brownsville, TX

Home | Current Version | Previous Version | Text Only | Print | Product List | Glossary On
Versions: 1 2 3 4 5 6 7 8 9 10 11 12 13 14 15 16 17 18 19 20 21 22 23 24 25
000
FTUS44 KBRO 022300
TAFMFE
TAF
KMFE 022330Z 0300/0324 12018G24KT P6SM FEW020 SCT100 BKN250
      TEMPO 0302/0306 VRB20G32KT 5SM +SHRA BKN030
     FM030600 14009KT P6SM SHRA BKN040 OVC090
      TEMPO 0306/0310 VRB25G34KT 4SM +SHRA BKN025
     FM031500 13015G20KT P6SM SHRA SCT030 BKN050
      TEMPO 0315/0319 5SM +TSRA BKN030CB=

USA.gov is the U.S. government's official web portal to all federal, state and local government web resources and services.